Time;durP1;ratioP1;P1;durP2;ratioP2;P2;SDS_P1;SDS_P2;PMS_P1;PMS_P2;Temp;Humidity;BMP_temperature;BMP_pressure;BME280_temperature;BME280_humidity;BME280_pressure;Samples;Min_cycle;Max_cycle;Signal;HPM_P1;HPM_P2
2023/06/14 00:01:03;;;;;;;320.83;205.27;;;;;;;;;;4999171;28;20489;-65
2023/06/14 00:03:29;;;;;;;323.50;205.20;;;;;;;;;;5000944;28;20058;-63
2023/06/14 00:05:54;;;;;;;439.20;284.27;;;;;;;;;;4999235;28;20287;-62
2023/06/14 00:08:22;;;;;;;434.17;276.73;;;;;;;;;;4999934;28;20658;-62
2023/06/14 00:10:48;;;;;;;321.27;203.77;;;;;;;;;;4974298;28;20463;-64
2023/06/14 00:13:13;;;;;;;324.37;208.03;;;;;;;;;;5000514;28;20287;-64
2023/06/14 00:15:39;;;;;;;436.53;281.60;;;;;;;;;;4998860;28;20034;-65
2023/06/14 00:18:05;;;;;;;435.90;273.27;;;;;;;;;;5000328;28;20034;-64
2023/06/14 00:20:32;;;;;;;438.97;283.40;;;;;;;;;;5000493;28;20044;-64
2023/06/14 00:23:00;;;;;;;438.23;280.37;;;;;;;;;;4999747;28;20511;-64
2023/06/14 00:25:26;;;;;;;435.27;278.93;;;;;;;;;;4999139;28;20882;-63
2023/06/14 00:27:55;;;;;;;436.10;286.37;;;;;;;;;;4999574;28;20780;-64
2023/06/14 00:30:21;;;;;;;437.30;281.80;;;;;;;;;;4998792;28;20272;-63
2023/06/14 00:32:47;;;;;;;431.57;272.37;;;;;;;;;;4999857;28;20644;-63
2023/06/14 00:35:13;;;;;;;436.73;282.37;;;;;;;;;;4999488;28;20041;-64
2023/06/14 00:37:38;;;;;;;434.27;276.20;;;;;;;;;;4997344;28;20037;-63
2023/06/14 00:40:04;;;;;;;434.33;268.83;;;;;;;;;;5000150;28;20041;-64
2023/06/14 00:42:30;;;;;;;434.40;276.30;;;;;;;;;;4998764;28;20037;-63
2023/06/14 00:44:56;;;;;;;437.37;273.60;;;;;;;;;;4999144;28;20110;-63
2023/06/14 00:47:21;;;;;;;321.40;204.00;;;;;;;;;;4997550;28;20045;-64
2023/06/14 00:49:49;;;;;;;318.97;198.23;;;;;;;;;;5000432;28;20044;-64
2023/06/14 00:52:16;;;;;;;326.70;215.90;;;;;;;;;;4998081;28;20293;-63
2023/06/14 00:54:42;;;;;;;432.30;273.40;;;;;;;;;;4999960;28;20284;-63
2023/06/14 00:57:07;;;;;;;318.63;202.73;;;;;;;;;;4996956;28;20304;-63
2023/06/14 00:59:35;;;;;;;432.17;265.97;;;;;;;;;;4998987;28;20034;-64
2023/06/14 01:02:00;;;;;;;431.57;255.33;;;;;;;;;;4998578;28;20029;-64
2023/06/14 01:04:26;;;;;;;435.00;268.20;;;;;;;;;;4993807;28;20308;-64
2023/06/14 01:07:03;;;;;;;429.73;267.27;;;;;;;;;;4979112;28;20053;-63
2023/06/14 01:09:29;;;;;;;433.37;266.03;;;;;;;;;;4979265;28;20396;-63
2023/06/14 01:12:04;;;;;;;431.93;265.87;;;;;;;;;;4980009;28;20281;-62
2023/06/14 01:14:31;;;;;;;434.47;273.73;;;;;;;;;;4984221;28;20034;-63
2023/06/14 01:17:00;;;;;;;321.53;209.57;;;;;;;;;;4979191;28;20767;-63
2023/06/14 01:19:28;;;;;;;436.63;272.63;;;;;;;;;;4979065;28;20332;-63
2023/06/14 01:21:55;;;;;;;434.90;271.43;;;;;;;;;;4979547;28;20311;-63
2023/06/14 01:24:23;;;;;;;324.10;201.70;;;;;;;;;;4978483;28;20304;-63
2023/06/14 01:26:51;;;;;;;430.30;263.97;;;;;;;;;;4993531;28;20305;-63
2023/06/14 01:29:17;;;;;;;428.70;266.63;;;;;;;;;;4978384;28;20293;-63
2023/06/14 01:31:45;;;;;;;434.67;277.63;;;;;;;;;;4978294;28;20637;-63
2023/06/14 01:34:10;;;;;;;430.50;266.63;;;;;;;;;;4979262;28;20351;-63
2023/06/14 01:36:37;;;;;;;433.67;276.03;;;;;;;;;;4978543;28;20388;-63
2023/06/14 01:39:03;;;;;;;319.23;203.80;;;;;;;;;;4978619;28;20062;-62
2023/06/14 01:41:30;;;;;;;433.97;276.60;;;;;;;;;;4971742;28;20281;-62
2023/06/14 01:43:56;;;;;;;437.37;276.63;;;;;;;;;;4982365;28;20297;-63
2023/06/14 01:46:22;;;;;;;433.93;283.07;;;;;;;;;;4995552;28;20328;-63
2023/06/14 01:48:48;;;;;;;436.33;286.07;;;;;;;;;;4982662;28;20301;-62
2023/06/14 01:51:14;;;;;;;437.37;289.67;;;;;;;;;;4982613;28;20364;-63
2023/06/14 01:53:41;;;;;;;438.43;291.97;;;;;;;;;;4981746;28;20125;-62
2023/06/14 01:56:09;;;;;;;434.37;283.70;;;;;;;;;;4982081;28;20298;-63
2023/06/14 01:58:35;;;;;;;432.10;281.97;;;;;;;;;;4981979;28;20296;-64
2023/06/14 02:01:02;;;;;;;430.90;278.57;;;;;;;;;;4965639;28;20076;-62
2023/06/14 02:03:27;;;;;;;433.53;283.37;;;;;;;;;;4986884;28;20746;-62
2023/06/14 02:05:54;;;;;;;437.00;296.23;;;;;;;;;;5000725;28;20601;-63
2023/06/14 02:08:19;;;;;;;431.47;279.37;;;;;;;;;;5002009;28;20545;-62
2023/06/14 02:10:45;;;;;;;434.53;287.07;;;;;;;;;;5001348;28;20916;-62
2023/06/14 02:13:10;;;;;;;437.10;296.33;;;;;;;;;;4982124;28;20042;-63
2023/06/14 02:15:36;;;;;;;433.97;290.93;;;;;;;;;;4984984;28;20044;-62
2023/06/14 02:18:03;;;;;;;432.93;286.03;;;;;;;;;;5000185;28;20147;-62
2023/06/14 02:20:28;;;;;;;434.63;291.27;;;;;;;;;;5001325;28;20045;-62
2023/06/14 02:22:55;;;;;;;434.43;285.73;;;;;;;;;;4989849;28;20343;-62
2023/06/14 02:25:21;;;;;;;430.70;277.07;;;;;;;;;;4984662;28;20297;-62
2023/06/14 02:27:46;;;;;;;430.87;281.00;;;;;;;;;;4999281;28;20172;-62
2023/06/14 02:30:12;;;;;;;433.67;284.63;;;;;;;;;;5000584;28;20504;-62
2023/06/14 02:32:38;;;;;;;429.83;278.57;;;;;;;;;;5001135;28;20333;-62
2023/06/14 02:35:04;;;;;;;433.23;288.07;;;;;;;;;;5001759;28;20041;-62
2023/06/14 02:37:30;;;;;;;435.40;287.87;;;;;;;;;;4999515;28;20293;-62
2023/06/14 02:39:55;;;;;;;435.77;285.00;;;;;;;;;;5002523;28;20503;-62
2023/06/14 02:42:22;;;;;;;436.53;294.73;;;;;;;;;;5000752;28;20060;-62
2023/06/14 02:44:51;;;;;;;321.00;211.00;;;;;;;;;;5001295;28;20276;-62
2023/06/14 02:47:19;;;;;;;435.20;287.63;;;;;;;;;;4984601;28;20057;-62
2023/06/14 02:49:48;;;;;;;322.23;212.90;;;;;;;;;;5001315;28;20675;-63
2023/06/14 02:52:14;;;;;;;437.67;300.90;;;;;;;;;;4983358;28;20304;-62
2023/06/14 02:54:40;;;;;;;434.90;286.57;;;;;;;;;;5000573;28;20297;-62
2023/06/14 02:57:07;;;;;;;435.43;293.60;;;;;;;;;;4986746;28;20044;-63
2023/06/14 02:59:34;;;;;;;328.53;229.03;;;;;;;;;;4982622;28;20048;-62
2023/06/14 03:01:59;;;;;;;436.97;292.80;;;;;;;;;;5001434;28;20285;-62
2023/06/14 03:04:25;;;;;;;323.23;218.77;;;;;;;;;;4999913;28;20801;-62
2023/06/14 03:06:53;;;;;;;435.63;292.33;;;;;;;;;;4973873;28;20030;-62
2023/06/14 03:09:20;;;;;;;436.47;290.93;;;;;;;;;;4999149;28;20299;-61
2023/06/14 03:11:46;;;;;;;437.20;297.77;;;;;;;;;;4990389;28;20698;-62
2023/06/14 03:14:13;;;;;;;436.77;300.07;;;;;;;;;;4998874;28;20676;-62
2023/06/14 03:16:41;;;;;;;321.33;219.83;;;;;;;;;;4981641;28;20782;-64
2023/06/14 03:19:09;;;;;;;431.60;287.90;;;;;;;;;;4982016;28;20285;-62
2023/06/14 03:21:34;;;;;;;323.20;217.27;;;;;;;;;;4999911;28;20308;-63
2023/06/14 03:24:03;;;;;;;436.70;286.17;;;;;;;;;;5000723;28;20045;-63
2023/06/14 03:26:30;;;;;;;433.30;286.80;;;;;;;;;;5001521;28;20366;-64
2023/06/14 03:28:56;;;;;;;437.77;285.23;;;;;;;;;;5002024;28;20560;-65
2023/06/14 03:31:23;;;;;;;433.50;288.40;;;;;;;;;;4986334;28;20353;-67
2023/06/14 03:33:49;;;;;;;435.87;292.23;;;;;;;;;;5000576;28;20288;-63
2023/06/14 03:36:15;;;;;;;434.50;292.73;;;;;;;;;;5000379;28;20299;-62
2023/06/14 03:38:41;;;;;;;322.73;219.77;;;;;;;;;;5002127;28;20040;-63
2023/06/14 03:41:07;;;;;;;435.83;288.07;;;;;;;;;;4985219;28;20515;-62
2023/06/14 03:43:33;;;;;;;322.83;220.23;;;;;;;;;;4999924;28;20291;-62
2023/06/14 03:45:59;;;;;;;436.40;299.07;;;;;;;;;;4982863;28;20038;-61
2023/06/14 03:48:26;;;;;;;434.77;281.80;;;;;;;;;;4990253;28;20300;-62
2023/06/14 03:50:52;;;;;;;438.80;291.93;;;;;;;;;;4998804;28;20289;-62
2023/06/14 03:53:20;;;;;;;435.00;286.40;;;;;;;;;;4998623;28;20288;-62
2023/06/14 03:55:48;;;;;;;327.63;229.47;;;;;;;;;;4998183;28;20042;-62
2023/06/14 03:58:15;;;;;;;325.17;230.70;;;;;;;;;;4981995;28;20305;-63
2023/06/14 04:00:40;;;;;;;325.47;216.80;;;;;;;;;;4999636;28;20328;-61
2023/06/14 04:03:06;;;;;;;437.73;297.50;;;;;;;;;;4999533;28;20379;-61
2023/06/14 04:05:32;;;;;;;441.40;308.43;;;;;;;;;;4965084;28;20072;-63
2023/06/14 04:07:58;;;;;;;437.70;308.87;;;;;;;;;;4982057;28;20196;-63
2023/06/14 04:10:24;;;;;;;437.00;304.40;;;;;;;;;;4998774;28;20566;-62
2023/06/14 04:12:50;;;;;;;441.77;305.97;;;;;;;;;;4998976;28;20293;-63
2023/06/14 04:15:17;;;;;;;328.70;233.90;;;;;;;;;;4996161;28;20381;-62
2023/06/14 04:17:43;;;;;;;324.33;222.33;;;;;;;;;;4999544;28;20369;-62
2023/06/14 04:20:10;;;;;;;328.83;248.33;;;;;;;;;;4998513;28;20324;-60
2023/06/14 04:22:36;;;;;;;442.10;315.77;;;;;;;;;;4998197;28;20056;-63
2023/06/14 04:25:03;;;;;;;439.20;317.77;;;;;;;;;;4998779;28;20289;-66
2023/06/14 04:27:31;;;;;;;326.33;236.57;;;;;;;;;;4981926;28;20384;-64
2023/06/14 04:29:59;;;;;;;324.13;233.47;;;;;;;;;;4981538;28;21002;-63
2023/06/14 04:32:33;;;;;;;325.77;238.63;;;;;;;;;;4980289;28;20285;-63
2023/06/14 04:35:01;;;;;;;444.83;331.67;;;;;;;;;;4981769;28;20359;-63
2023/06/14 04:37:30;;;;;;;324.43;240.33;;;;;;;;;;4980511;28;20292;-63
2023/06/14 04:39:56;;;;;;;325.57;244.20;;;;;;;;;;4999779;28;20257;-63
2023/06/14 04:42:24;;;;;;;445.50;351.10;;;;;;;;;;5000102;28;20308;-62
2023/06/14 04:44:51;;;;;;;445.97;345.23;;;;;;;;;;4998151;28;20597;-62
2023/06/14 04:47:17;;;;;;;331.50;261.27;;;;;;;;;;4998267;28;20769;-62
2023/06/14 04:49:43;;;;;;;328.30;262.77;;;;;;;;;;4997920;28;20689;-64
2023/06/14 04:52:10;;;;;;;451.03;369.63;;;;;;;;;;4999232;28;20359;-65
2023/06/14 04:54:43;;;;;;;446.37;360.07;;;;;;;;;;4998193;28;20046;-64
2023/06/14 04:57:13;;;;;;;332.10;268.80;;;;;;;;;;4998418;28;20297;-64
2023/06/14 04:59:39;;;;;;;451.80;367.50;;;;;;;;;;4996432;28;20301;-65
2023/06/14 05:02:06;;;;;;;332.03;275.33;;;;;;;;;;4980699;28;20655;-64
2023/06/14 05:04:33;;;;;;;453.07;367.20;;;;;;;;;;4993864;28;20062;-64
2023/06/14 05:06:59;;;;;;;447.97;362.13;;;;;;;;;;4999026;28;20671;-64
2023/06/14 05:09:25;;;;;;;452.50;373.63;;;;;;;;;;4996468;28;20343;-62
2023/06/14 05:11:50;;;;;;;448.90;372.03;;;;;;;;;;4981428;28;20297;-67
2023/06/14 05:14:16;;;;;;;451.60;383.70;;;;;;;;;;4963592;28;20307;-60
2023/06/14 05:16:42;;;;;;;335.13;280.63;;;;;;;;;;5000411;28;20045;-62
2023/06/14 05:19:08;;;;;;;453.63;374.47;;;;;;;;;;5001107;28;20038;-62
2023/06/14 05:21:34;;;;;;;454.33;378.70;;;;;;;;;;5002336;28;20287;-62
2023/06/14 05:24:00;;;;;;;451.67;388.33;;;;;;;;;;4999375;28;20044;-62
2023/06/14 05:26:28;;;;;;;334.73;293.37;;;;;;;;;;4983434;28;20277;-63
2023/06/14 05:28:56;;;;;;;448.40;380.23;;;;;;;;;;4983694;28;20054;-62
2023/06/14 05:31:22;;;;;;;460.90;410.23;;;;;;;;;;5000991;28;20296;-61
2023/06/14 05:33:48;;;;;;;455.33;404.57;;;;;;;;;;5002850;28;20292;-65
2023/06/14 05:36:13;;;;;;;467.17;416.43;;;;;;;;;;5001628;28;20764;-67
2023/06/14 05:38:39;;;;;;;458.60;408.03;;;;;;;;;;5002136;28;20570;-66
2023/06/14 05:41:04;;;;;;;475.43;424.60;;;;;;;;;;5001380;28;20726;-66
2023/06/14 05:43:31;;;;;;;476.50;425.53;;;;;;;;;;5002840;28;20620;-65
2023/06/14 05:45:57;;;;;;;357.17;319.67;;;;;;;;;;5001238;28;20041;-65
2023/06/14 05:48:22;;;;;;;484.50;433.50;;;;;;;;;;5003055;28;20315;-65
2023/06/14 05:50:48;;;;;;;486.30;435.07;;;;;;;;;;5001116;28;20029;-66
2023/06/14 05:53:13;;;;;;;483.00;432.03;;;;;;;;;;5001654;28;20547;-65
2023/06/14 05:55:39;;;;;;;493.47;441.93;;;;;;;;;;4999838;28;20065;-64
2023/06/14 05:58:04;;;;;;;488.50;437.53;;;;;;;;;;5001713;28;20469;-65
2023/06/14 06:00:30;;;;;;;371.30;333.33;;;;;;;;;;4998567;28;20535;-64
2023/06/14 06:02:57;;;;;;;497.93;446.80;;;;;;;;;;5000757;28;20048;-66
2023/06/14 06:05:23;;;;;;;506.17;454.97;;;;;;;;;;5000748;28;20046;-65
2023/06/14 06:07:48;;;;;;;483.73;433.07;;;;;;;;;;5002161;28;20731;-66
2023/06/14 06:10:14;;;;;;;493.33;442.27;;;;;;;;;;5003186;28;20389;-66
2023/06/14 06:12:41;;;;;;;500.47;449.00;;;;;;;;;;5001509;28;20042;-67
2023/06/14 06:15:07;;;;;;;486.20;435.13;;;;;;;;;;5000048;28;20329;-66
2023/06/14 06:17:33;;;;;;;506.70;455.07;;;;;;;;;;4984899;28;20282;-66
2023/06/14 06:19:59;;;;;;;489.77;438.63;;;;;;;;;;5000663;28;20621;-66
2023/06/14 06:22:24;;;;;;;498.30;447.00;;;;;;;;;;5001430;28;20042;-67
2023/06/14 06:24:50;;;;;;;493.53;442.20;;;;;;;;;;5000913;28;20109;-65
2023/06/14 06:27:15;;;;;;;499.23;448.23;;;;;;;;;;4999085;28;20048;-65
2023/06/14 06:29:42;;;;;;;505.27;454.00;;;;;;;;;;4998777;28;20473;-65
2023/06/14 06:32:08;;;;;;;506.77;455.70;;;;;;;;;;5001168;28;20087;-65
2023/06/14 06:34:33;;;;;;;506.30;454.87;;;;;;;;;;5002001;28;20565;-65
2023/06/14 06:36:58;;;;;;;501.07;450.17;;;;;;;;;;5001786;28;20052;-65
2023/06/14 06:39:24;;;;;;;503.57;452.37;;;;;;;;;;5001601;28;20022;-67
2023/06/14 06:41:49;;;;;;;504.77;452.97;;;;;;;;;;4984249;28;20069;-59
2023/06/14 06:44:25;;;;;;;506.07;454.93;;;;;;;;;;4984673;28;20314;-63
2023/06/14 06:46:50;;;;;;;512.60;461.47;;;;;;;;;;4983092;28;20296;-61
2023/06/14 06:49:16;;;;;;;512.13;460.43;;;;;;;;;;4999294;28;20034;-61
2023/06/14 06:51:43;;;;;;;513.17;461.80;;;;;;;;;;5000961;28;20034;-61
2023/06/14 06:54:09;;;;;;;519.70;468.13;;;;;;;;;;5001201;28;20038;-64
2023/06/14 06:56:34;;;;;;;531.73;479.80;;;;;;;;;;5000615;28;20269;-60
2023/06/14 06:59:00;;;;;;;514.70;463.20;;;;;;;;;;5001874;28;20050;-60
2023/06/14 07:01:26;;;;;;;531.53;479.63;;;;;;;;;;5000791;28;20038;-61
2023/06/14 07:03:51;;;;;;;528.93;477.33;;;;;;;;;;5000312;28;20045;-61
2023/06/14 07:06:18;;;;;;;547.57;495.47;;;;;;;;;;4998507;28;20035;-61
2023/06/14 07:08:44;;;;;;;542.67;490.77;;;;;;;;;;4984280;28;20053;-60
2023/06/14 07:11:10;;;;;;;544.00;492.43;;;;;;;;;;4999801;28;20284;-61
2023/06/14 07:13:35;;;;;;;556.23;504.13;;;;;;;;;;4999439;28;20546;-61
2023/06/14 07:16:01;;;;;;;540.00;488.33;;;;;;;;;;4997319;28;20408;-60
2023/06/14 07:18:27;;;;;;;563.13;510.90;;;;;;;;;;4999874;28;20113;-61
2023/06/14 07:20:54;;;;;;;556.67;504.63;;;;;;;;;;4999512;28;20293;-61
2023/06/14 07:23:20;;;;;;;575.17;522.90;;;;;;;;;;4999232;28;20133;-61
2023/06/14 07:25:45;;;;;;;573.63;521.07;;;;;;;;;;4980766;28;20292;-62
2023/06/14 07:28:10;;;;;;;575.73;523.13;;;;;;;;;;4998911;28;20421;-62
2023/06/14 07:30:36;;;;;;;579.93;526.97;;;;;;;;;;4998074;28;20038;-61
2023/06/14 07:33:01;;;;;;;584.17;531.60;;;;;;;;;;4999093;28;20120;-60
2023/06/14 07:35:27;;;;;;;572.30;519.97;;;;;;;;;;4998300;28;20025;-61
2023/06/14 07:37:53;;;;;;;581.77;529.37;;;;;;;;;;4998088;28;20196;-61
2023/06/14 07:40:18;;;;;;;583.00;530.23;;;;;;;;;;5000382;28;20080;-61
2023/06/14 07:42:44;;;;;;;581.57;529.20;;;;;;;;;;4999868;28;20397;-61
2023/06/14 07:45:09;;;;;;;565.30;513.30;;;;;;;;;;4999437;28;20876;-61
2023/06/14 07:47:35;;;;;;;572.07;519.53;;;;;;;;;;4999282;28;20064;-61
2023/06/14 07:50:00;;;;;;;579.20;526.93;;;;;;;;;;5000640;28;20124;-61
2023/06/14 07:52:26;;;;;;;577.17;524.93;;;;;;;;;;5000089;28;20120;-61
2023/06/14 07:54:51;;;;;;;580.53;528.03;;;;;;;;;;5000988;28;20117;-61
2023/06/14 07:57:19;;;;;;;575.50;523.10;;;;;;;;;;4999196;28;20041;-61
2023/06/14 07:59:45;;;;;;;587.47;534.80;;;;;;;;;;4999368;28;20104;-61
2023/06/14 08:02:11;;;;;;;576.67;524.43;;;;;;;;;;4999666;28;20385;-61
2023/06/14 08:04:36;;;;;;;576.83;524.60;;;;;;;;;;4999832;28;20180;-61
2023/06/14 08:07:02;;;;;;;601.23;548.43;;;;;;;;;;4990459;28;20362;-61
2023/06/14 08:09:28;;;;;;;606.93;554.07;;;;;;;;;;4999276;28;20053;-62
2023/06/14 08:11:54;;;;;;;600.20;547.53;;;;;;;;;;4999846;28;20037;-61
2023/06/14 08:14:19;;;;;;;624.33;571.00;;;;;;;;;;4997881;28;20511;-61
2023/06/14 08:16:45;;;;;;;629.00;575.40;;;;;;;;;;4999346;28;20172;-61
2023/06/14 08:19:10;;;;;;;632.50;578.87;;;;;;;;;;5000319;28;20715;-61
2023/06/14 08:21:36;;;;;;;648.07;594.23;;;;;;;;;;4998317;28;20030;-61
2023/06/14 08:24:02;;;;;;;660.13;605.73;;;;;;;;;;4998483;28;20108;-61
2023/06/14 08:26:28;;;;;;;650.90;596.93;;;;;;;;;;4998175;28;20153;-61
2023/06/14 08:28:54;;;;;;;652.47;598.53;;;;;;;;;;4996687;28;20141;-61
2023/06/14 08:31:20;;;;;;;656.40;602.20;;;;;;;;;;4997722;28;20037;-65
2023/06/14 08:33:46;;;;;;;675.97;620.57;;;;;;;;;;4984227;28;20398;-67
2023/06/14 08:36:12;;;;;;;640.60;586.67;;;;;;;;;;4996928;28;20037;-63
2023/06/14 08:38:38;;;;;;;647.07;593.07;;;;;;;;;;4999678;28;20041;-64
2023/06/14 08:41:05;;;;;;;666.03;611.87;;;;;;;;;;4998596;28;20069;-68
2023/06/14 08:43:31;;;;;;;654.30;600.33;;;;;;;;;;4999862;28;20432;-62
2023/06/14 08:46:03;;;;;;;639.60;586.03;;;;;;;;;;4998317;28;20038;-62
2023/06/14 08:48:32;;;;;;;649.83;596.03;;;;;;;;;;4998637;28;20556;-61
2023/06/14 08:51:01;;;;;;;658.90;604.83;;;;;;;;;;4998708;28;20033;-62
2023/06/14 08:53:28;;;;;;;660.87;606.80;;;;;;;;;;4999424;28;20950;-62
2023/06/14 08:55:55;;;;;;;661.73;607.37;;;;;;;;;;4996693;28;20072;-62
2023/06/14 08:58:24;;;;;;;652.63;598.40;;;;;;;;;;5000088;28;20053;-64
2023/06/14 09:00:52;;;;;;;673.33;618.97;;;;;;;;;;4999439;28;20030;-64
2023/06/14 09:03:20;;;;;;;663.97;609.63;;;;;;;;;;4998483;28;20070;-61
2023/06/14 09:05:46;;;;;;;647.43;593.50;;;;;;;;;;4998841;28;20028;-61
2023/06/14 09:08:12;;;;;;;651.63;597.83;;;;;;;;;;4981306;28;20068;-61
2023/06/14 09:10:39;;;;;;;658.10;603.70;;;;;;;;;;4998081;28;20169;-61
2023/06/14 09:13:05;;;;;;;646.43;592.83;;;;;;;;;;4998318;28;20038;-62
2023/06/14 09:15:30;;;;;;;651.43;597.60;;;;;;;;;;4998486;28;20606;-61
2023/06/14 09:17:56;;;;;;;670.13;615.87;;;;;;;;;;4998010;28;20033;-61
2023/06/14 09:20:23;;;;;;;675.27;620.97;;;;;;;;;;4998494;28;20034;-61
2023/06/14 09:22:49;;;;;;;668.17;614.13;;;;;;;;;;4996372;28;20038;-64
2023/06/14 09:25:15;;;;;;;692.43;637.70;;;;;;;;;;4996295;28;20500;-61
2023/06/14 09:27:41;;;;;;;682.30;627.97;;;;;;;;;;4998378;28;20049;-61
2023/06/14 09:30:09;;;;;;;694.50;639.67;;;;;;;;;;4998824;28;20108;-61
2023/06/14 09:32:41;;;;;;;695.07;639.97;;;;;;;;;;4997589;28;20030;-61
2023/06/14 09:35:07;;;;;;;667.20;613.17;;;;;;;;;;4998192;28;20033;-61
2023/06/14 09:37:32;;;;;;;676.80;622.50;;;;;;;;;;4996931;28;20037;-61
2023/06/14 09:39:58;;;;;;;675.60;621.23;;;;;;;;;;4998805;28;20029;-61
2023/06/14 09:42:28;;;;;;;713.13;657.10;;;;;;;;;;4998086;28;20029;-62
2023/06/14 09:44:55;;;;;;;675.60;621.20;;;;;;;;;;4999293;28;20038;-61
2023/06/14 09:47:21;;;;;;;676.50;622.10;;;;;;;;;;4998748;28;20038;-61
2023/06/14 09:49:47;;;;;;;653.23;599.33;;;;;;;;;;4997596;28;20037;-61
2023/06/14 09:52:22;;;;;;;676.03;621.60;;;;;;;;;;4998646;28;20095;-61
2023/06/14 09:54:52;;;;;;;666.20;612.13;;;;;;;;;;4998723;28;20116;-62
2023/06/14 09:57:21;;;;;;;703.70;648.63;;;;;;;;;;4998511;28;20378;-62
2023/06/14 09:59:48;;;;;;;708.13;652.93;;;;;;;;;;4997853;28;20042;-62
2023/06/14 10:02:32;;;;;;;702.43;647.57;;;;;;;;;;4975080;28;20136;-63
2023/06/14 10:05:03;;;;;;;713.80;658.53;;;;;;;;;;5000980;28;20057;-62
2023/06/14 10:07:32;;;;;;;723.37;667.83;;;;;;;;;;5001600;28;20124;-61
2023/06/14 10:09:57;;;;;;;719.93;664.87;;;;;;;;;;5002121;28;20034;-64
2023/06/14 10:12:23;;;;;;;714.97;659.77;;;;;;;;;;5001770;28;20404;-61
2023/06/14 10:14:49;;;;;;;728.33;672.60;;;;;;;;;;5000848;28;20303;-61
2023/06/14 10:17:39;;;;;;;708.53;653.80;;;;;;;;;;5003227;28;20038;-62
2023/06/14 10:20:11;;;;;;;715.57;660.47;;;;;;;;;;5001352;28;20146;-62
2023/06/14 10:22:41;;;;;;;708.17;653.37;;;;;;;;;;4999820;28;20038;-61
2023/06/14 10:25:12;;;;;;;718.40;663.27;;;;;;;;;;4985260;28;20046;-62
2023/06/14 10:27:38;;;;;;;726.83;671.37;;;;;;;;;;5002270;28;20038;-62
2023/06/14 10:30:04;;;;;;;734.33;678.80;;;;;;;;;;5002618;28;20038;-63
2023/06/14 10:32:31;;;;;;;728.17;672.67;;;;;;;;;;5002305;28;20099;-62
2023/06/14 10:35:01;;;;;;;717.70;662.40;;;;;;;;;;5002435;28;20038;-62
2023/06/14 10:37:27;;;;;;;703.20;648.30;;;;;;;;;;5001669;28;20120;-63
2023/06/14 10:39:55;;;;;;;717.47;662.33;;;;;;;;;;5000116;28;20069;-63
2023/06/14 10:42:22;;;;;;;718.37;663.33;;;;;;;;;;5002239;28;20065;-61
2023/06/14 10:45:00;;;;;;;699.97;645.03;;;;;;;;;;5001501;28;20042;-63
2023/06/14 10:47:25;;;;;;;712.70;657.63;;;;;;;;;;4991999;28;20413;-62
2023/06/14 10:49:52;;;;;;;713.40;658.40;;;;;;;;;;5001970;28;20037;-64
2023/06/14 10:52:20;;;;;;;722.43;667.00;;;;;;;;;;4974847;28;20038;-63
2023/06/14 10:55:16;;;;;;;719.53;664.27;;;;;;;;;;5000031;28;20451;-61
2023/06/14 10:57:43;;;;;;;713.80;658.75;;;;;;;;;;4991241;28;20046;-62
2023/06/14 11:00:12;;;;;;;705.70;650.97;;;;;;;;;;4999224;28;20579;-64
2023/06/14 11:02:57;;;;;;;701.20;646.10;;;;;;;;;;4999678;28;20259;-64
2023/06/14 11:05:26;;;;;;;721.53;665.92;;;;;;;;;;4999128;28;20058;-64
2023/06/14 11:08:11;;;;;;;728.60;673.23;;;;;;;;;;4972366;28;20499;-64
2023/06/14 11:10:37;;;;;;;721.70;666.55;;;;;;;;;;4998901;28;20266;-63
2023/06/14 11:13:03;;;;;;;739.43;683.93;;;;;;;;;;4997569;28;20392;-65
2023/06/14 11:15:32;;;;;;;739.40;683.53;;;;;;;;;;4998114;28;20024;-60
2023/06/14 11:18:00;;;;;;;761.10;705.03;;;;;;;;;;4983272;28;20481;-62
2023/06/14 11:20:26;;;;;;;773.47;717.07;;;;;;;;;;5000750;28;20084;-62
2023/06/14 11:22:52;;;;;;;756.23;700.17;;;;;;;;;;5000417;28;20062;-62
2023/06/14 11:25:18;;;;;;;777.57;721.10;;;;;;;;;;5001430;28;20057;-61
2023/06/14 11:27:44;;;;;;;780.67;724.17;;;;;;;;;;5000462;28;20038;-69
2023/06/14 11:30:10;;;;;;;779.23;722.77;;;;;;;;;;4999829;28;20042;-61
2023/06/14 11:32:36;;;;;;;786.43;729.80;;;;;;;;;;4999273;28;20033;-61
2023/06/14 11:35:02;;;;;;;761.37;705.30;;;;;;;;;;5000766;28;20091;-61
2023/06/14 11:37:31;;;;;;;737.53;681.73;;;;;;;;;;4999377;28;20044;-62
2023/06/14 11:39:57;;;;;;;513.27;473.37;;;;;;;;;;4999138;28;20030;-62
2023/06/14 11:42:23;;;;;;;723.33;667.83;;;;;;;;;;5000188;28;20062;-62
2023/06/14 11:44:52;;;;;;;740.90;685.00;;;;;;;;;;4997711;28;20221;-61
2023/06/14 11:47:18;;;;;;;746.63;690.87;;;;;;;;;;4998036;28;20042;-61
2023/06/14 11:49:43;;;;;;;746.70;690.80;;;;;;;;;;4997845;28;20050;-62
2023/06/14 11:52:09;;;;;;;746.10;690.17;;;;;;;;;;4998695;28;20548;-61
2023/06/14 11:54:34;;;;;;;726.83;671.17;;;;;;;;;;4998634;28;20038;-61
2023/06/14 11:57:00;;;;;;;727.83;672.33;;;;;;;;;;4971973;28;20053;-61
2023/06/14 11:59:25;;;;;;;722.63;667.17;;;;;;;;;;4980879;28;20448;-60
2023/06/14 12:01:54;;;;;;;720.87;665.30;;;;;;;;;;4998109;28;20048;-61
2023/06/14 12:04:24;;;;;;;716.90;661.83;;;;;;;;;;4980011;28;20420;-60
2023/06/14 12:06:53;;;;;;;714.83;659.43;;;;;;;;;;4998531;28;20503;-61
2023/06/14 12:09:19;;;;;;;515.60;475.40;;;;;;;;;;4998636;28;20038;-61
2023/06/14 12:11:45;;;;;;;705.23;650.23;;;;;;;;;;4998753;28;20080;-61
2023/06/14 12:14:10;;;;;;;716.33;661.10;;;;;;;;;;4998155;28;20042;-61
2023/06/14 12:16:40;;;;;;;682.77;628.43;;;;;;;;;;4999620;28;20058;-59
2023/06/14 12:19:26;;;;;;;711.70;656.43;;;;;;;;;;4998558;28;20025;-60
2023/06/14 12:21:52;;;;;;;711.67;656.57;;;;;;;;;;4999557;28;20076;-59
2023/06/14 12:24:17;;;;;;;701.17;645.97;;;;;;;;;;4998836;28;20513;-59
2023/06/14 12:26:43;;;;;;;702.43;647.63;;;;;;;;;;4971967;28;20153;-59
2023/06/14 12:29:08;;;;;;;721.40;666.00;;;;;;;;;;4999537;28;20034;-60
2023/06/14 12:31:34;;;;;;;729.43;673.83;;;;;;;;;;4998173;28;20033;-59
2023/06/14 12:34:00;;;;;;;709.47;654.37;;;;;;;;;;4997545;28;20046;-59
2023/06/14 12:36:25;;;;;;;710.20;654.90;;;;;;;;;;4998154;28;20075;-59
2023/06/14 12:38:53;;;;;;;707.70;652.67;;;;;;;;;;4999027;28;20057;-59
2023/06/14 12:41:21;;;;;;;717.10;661.67;;;;;;;;;;4999155;28;20030;-60
2023/06/14 12:43:46;;;;;;;707.13;652.33;;;;;;;;;;4999404;28;20029;-59
2023/06/14 12:46:12;;;;;;;714.87;659.57;;;;;;;;;;4995370;28;20030;-60
2023/06/14 12:48:37;;;;;;;714.37;659.30;;;;;;;;;;4997409;28;20048;-61
2023/06/14 12:51:03;;;;;;;726.87;671.17;;;;;;;;;;4997385;28;20134;-60
2023/06/14 12:53:28;;;;;;;702.67;647.80;;;;;;;;;;4999414;28;20049;-59
2023/06/14 12:55:54;;;;;;;712.00;656.80;;;;;;;;;;4998903;28;20544;-60
2023/06/14 12:58:20;;;;;;;702.17;647.30;;;;;;;;;;4999128;28;20046;-60
2023/06/14 13:00:46;;;;;;;705.47;650.27;;;;;;;;;;4997990;28;20037;-60
2023/06/14 13:03:11;;;;;;;703.17;648.23;;;;;;;;;;4997834;28;20060;-60
2023/06/14 13:05:37;;;;;;;699.00;644.13;;;;;;;;;;4998707;28;20034;-60
2023/06/14 13:08:03;;;;;;;705.63;650.90;;;;;;;;;;4998199;28;20050;-60
2023/06/14 13:10:28;;;;;;;711.20;655.90;;;;;;;;;;4998965;28;20054;-60
2023/06/14 13:12:54;;;;;;;699.33;644.70;;;;;;;;;;4997297;28;20072;-60
2023/06/14 13:15:19;;;;;;;713.47;658.37;;;;;;;;;;4981386;28;20495;-60
2023/06/14 13:17:48;;;;;;;719.03;663.80;;;;;;;;;;4998258;28;20042;-60
2023/06/14 13:20:14;;;;;;;728.97;673.77;;;;;;;;;;4999242;28;20049;-59
2023/06/14 13:22:40;;;;;;;729.80;674.37;;;;;;;;;;4997782;28;20030;-60
2023/06/14 13:25:05;;;;;;;730.93;675.50;;;;;;;;;;4998875;28;20038;-59
2023/06/14 13:27:31;;;;;;;738.63;682.43;;;;;;;;;;4996532;28;20061;-61
2023/06/14 13:29:56;;;;;;;739.73;684.03;;;;;;;;;;4997013;28;20484;-60
2023/06/14 13:32:22;;;;;;;729.77;674.67;;;;;;;;;;4998942;28;20053;-59
2023/06/14 13:34:48;;;;;;;722.83;667.70;;;;;;;;;;4996981;28;20048;-59
2023/06/14 13:37:14;;;;;;;727.37;672.03;;;;;;;;;;5002462;28;20377;-59
2023/06/14 13:39:39;;;;;;;735.90;680.47;;;;;;;;;;4994814;28;20481;-58
2023/06/14 13:42:05;;;;;;;730.33;675.13;;;;;;;;;;4993578;28;20658;-58
2023/06/14 13:44:33;;;;;;;745.37;689.47;;;;;;;;;;5001395;28;20017;-59
2023/06/14 13:46:59;;;;;;;743.67;688.07;;;;;;;;;;5001311;28;20060;-58
2023/06/14 13:49:24;;;;;;;729.13;674.23;;;;;;;;;;5002105;28;20042;-59